Terminal Aerodrome Forecast
Issued by NWS

Home | Current Version | Previous Version | Text Only | Print | Product List | Glossary On
Versions: 1 2 3 4 5 6 7 8 9 10 11 12
000
FTUS42 TJSJ 230500
TAFNCM
TAF
TNCM 230533Z 2306/2406 10008KT P6SM VCTS FEW019CB BKN035
      TEMPO 2306/2310 VRB12G18KT 6SM -TSRA BKN019CB BKN030
     FM231030 09007KT P6SM VCSH SCT019 BKN050 BKN120
     FM231430 12012KT P6SM FEW022 SCT060 SCT120=

USA.gov is the U.S. government's official web portal to all federal, state and local government web resources and services.